createdAt,value
2019-02-09T00:02:32.625Z,2.70
2019-02-09T00:05:12.690Z,1.90
2019-02-09T00:07:52.712Z,1.83
2019-02-09T00:10:32.979Z,2.10
2019-02-09T00:13:12.940Z,1.53
2019-02-09T00:15:52.919Z,1.43
2019-02-09T00:18:33.577Z,2.73
2019-02-09T00:21:14.320Z,2.63
2019-02-09T00:23:54.046Z,2.13
2019-02-09T00:26:34.292Z,2.00
2019-02-09T00:29:14.341Z,2.23
2019-02-09T00:31:54.345Z,2.07
2019-02-09T00:34:34.242Z,3.40
2019-02-09T00:37:14.340Z,3.00
2019-02-09T00:39:54.368Z,3.90
2019-02-09T00:42:34.766Z,2.47
2019-02-09T00:45:14.808Z,2.67
2019-02-09T00:47:54.556Z,1.87
2019-02-09T00:50:34.806Z,2.10
2019-02-09T00:53:14.824Z,1.47
2019-02-09T00:55:54.801Z,1.73
2019-02-09T00:58:34.752Z,1.43
2019-02-09T01:01:15.225Z,3.53
2019-02-09T01:03:55.216Z,2.00
2019-02-09T01:06:35.242Z,2.73
2019-02-09T01:09:15.607Z,3.30
2019-02-09T01:11:56.130Z,5.23
2019-02-09T01:14:36.205Z,2.63
2019-02-09T01:17:15.848Z,1.37
2019-02-09T01:19:55.891Z,1.47
2019-02-09T01:22:35.940Z,1.20
2019-02-09T01:25:15.975Z,2.57
2019-02-09T01:27:56.056Z,2.77
2019-02-09T01:30:36.471Z,3.60
2019-02-09T01:33:16.274Z,1.20
2019-02-09T01:35:56.469Z,1.83
2019-02-09T01:38:36.106Z,1.77
2019-02-09T01:41:16.386Z,1.37
2019-02-09T01:43:56.369Z,1.73
2019-02-09T01:46:36.281Z,2.30
2019-02-09T01:49:16.832Z,2.80
2019-02-09T01:51:56.660Z,5.57
2019-02-09T01:54:36.423Z,1.47
2019-02-09T01:57:16.619Z,1.40
2019-02-09T01:59:56.379Z,1.10
2019-02-09T02:02:36.309Z,1.10
2019-02-09T02:05:16.795Z,2.07
2019-02-09T02:07:56.940Z,3.50
2019-02-09T02:10:36.856Z,1.60
2019-02-09T02:13:16.876Z,2.13
2019-02-09T02:15:56.720Z,1.17
2019-02-09T02:18:36.769Z,2.30
2019-02-09T02:21:17.225Z,1.57
2019-02-09T02:23:57.107Z,2.83
2019-02-09T02:26:36.907Z,1.37
2019-02-09T02:29:16.951Z,2.10
2019-02-09T02:31:56.871Z,1.57
2019-02-09T02:34:37.405Z,2.40
2019-02-09T02:37:17.284Z,1.20
2019-02-09T02:39:57.039Z,1.97
2019-02-09T02:42:37.146Z,3.80
2019-02-09T02:45:17.167Z,1.20
2019-02-09T02:47:57.508Z,3.53
2019-02-09T02:50:37.434Z,1.30
2019-02-09T02:53:17.208Z,2.93
2019-02-09T02:55:57.255Z,1.43
2019-02-09T02:58:37.515Z,4.93
2019-02-09T03:01:17.706Z,1.97
2019-02-09T03:03:57.783Z,1.53
2019-02-09T03:06:37.774Z,1.57
2019-02-09T03:09:18.955Z,3.30
2019-02-09T03:11:58.990Z,1.80
2019-02-09T03:14:39.011Z,2.63
2019-02-09T03:17:19.054Z,1.60
2019-02-09T03:19:59.222Z,1.50
2019-02-09T03:22:39.167Z,2.23
2019-02-09T03:25:18.925Z,3.90
2019-02-09T03:27:59.273Z,5.37
2019-02-09T03:30:47.727Z,2.60
2019-02-09T03:33:21.209Z,2.20
2019-02-09T03:35:59.348Z,2.40
2019-02-09T03:38:46.336Z,2.30
2019-02-09T03:41:25.880Z,2.80
2019-02-09T03:44:06.176Z,2.20
2019-02-09T03:46:45.814Z,2.67
2019-02-09T03:49:25.889Z,2.23
2019-02-09T03:52:05.874Z,2.70
2019-02-09T03:54:45.853Z,2.37
2019-02-09T03:57:25.812Z,3.07
2019-02-09T04:00:06.228Z,3.33
2019-02-09T04:02:46.113Z,1.63
2019-02-09T04:05:26.617Z,2.57
2019-02-09T04:08:06.149Z,3.57
2019-02-09T04:10:46.310Z,3.80
2019-02-09T04:13:26.181Z,2.27
2019-02-09T04:16:06.615Z,1.80
2019-02-09T04:18:46.239Z,1.10
2019-02-09T04:21:26.537Z,1.43
2019-02-09T04:24:06.454Z,1.50
2019-02-09T04:26:46.387Z,4.13
2019-02-09T04:29:26.483Z,1.80
2019-02-09T04:32:06.608Z,8.00
2019-02-09T04:34:46.704Z,2.13
2019-02-09T04:37:26.800Z,2.83
2019-02-09T04:40:06.997Z,4.50
2019-02-09T04:42:50.764Z,2.70
2019-02-09T04:45:30.923Z,4.10
2019-02-09T04:48:11.058Z,1.70
2019-02-09T04:50:51.156Z,1.80
2019-02-09T04:53:31.485Z,2.10
2019-02-09T04:56:12.197Z,1.50
2019-02-09T04:58:52.447Z,1.47
2019-02-09T05:01:32.427Z,1.30
2019-02-09T05:04:12.604Z,1.90
2019-02-09T05:06:52.641Z,1.40
2019-02-09T05:09:32.845Z,2.87
2019-02-09T05:12:12.950Z,1.03
2019-02-09T05:14:52.905Z,1.40
2019-02-09T05:17:34.204Z,2.90
2019-02-09T05:20:14.210Z,1.67
2019-02-09T05:22:54.462Z,2.03
2019-02-09T05:25:34.591Z,1.20
2019-02-09T05:28:14.769Z,6.53
2019-02-09T05:30:54.779Z,1.30
2019-02-09T05:33:34.798Z,2.53
2019-02-09T05:36:14.781Z,2.60
2019-02-09T05:38:54.869Z,1.73
2019-02-09T05:41:35.052Z,2.17
2019-02-09T05:44:15.027Z,3.63
2019-02-09T05:46:55.114Z,2.93
2019-02-09T05:49:35.668Z,2.23
2019-02-09T05:52:15.306Z,1.77
2019-02-09T05:54:55.727Z,1.80
2019-02-09T05:57:36.013Z,1.53
2019-02-09T06:00:16.510Z,1.60
2019-02-09T06:02:56.014Z,3.53
2019-02-09T06:05:36.059Z,2.10
2019-02-09T06:08:16.080Z,3.07
2019-02-09T06:10:56.106Z,2.10
2019-02-09T06:13:36.069Z,5.07
2019-02-09T06:16:16.269Z,1.50
2019-02-09T06:18:55.826Z,3.47
2019-02-09T06:21:35.851Z,3.47
2019-02-09T06:24:15.949Z,4.00
2019-02-09T06:26:56.049Z,4.37
2019-02-09T06:29:35.980Z,4.87
2019-02-09T06:32:16.118Z,2.53
2019-02-09T06:34:56.022Z,2.33
2019-02-09T06:37:35.929Z,4.60
2019-02-09T06:40:16.144Z,3.00
2019-02-09T06:42:56.336Z,4.03
2019-02-09T06:45:36.808Z,2.70
2019-02-09T06:48:16.692Z,3.13
2019-02-09T06:50:56.734Z,4.90
2019-02-09T06:53:36.590Z,2.87
2019-02-09T06:56:16.716Z,2.50
2019-02-09T06:58:56.761Z,4.37
2019-02-09T07:01:37.327Z,2.47
2019-02-09T07:04:17.448Z,4.10
2019-02-09T07:06:57.359Z,3.20
2019-02-09T07:09:37.668Z,4.37
2019-02-09T07:12:17.679Z,2.83
2019-02-09T07:14:57.700Z,3.03
2019-02-09T07:17:37.696Z,2.47
2019-02-09T07:20:17.746Z,3.47
2019-02-09T07:22:57.826Z,3.10
2019-02-09T07:25:37.862Z,4.13
2019-02-09T07:28:18.026Z,5.70
2019-02-09T07:30:58.521Z,3.23
2019-02-09T07:33:38.412Z,3.37
2019-02-09T07:36:18.238Z,4.63
2019-02-09T07:38:58.283Z,5.53
2019-02-09T07:41:38.423Z,4.37
2019-02-09T07:44:18.549Z,3.30
2019-02-09T07:46:58.812Z,3.53
2019-02-09T07:49:38.556Z,3.77
2019-02-09T07:52:18.680Z,4.17
2019-02-09T07:54:58.908Z,3.97
2019-02-09T07:57:39.104Z,2.70
2019-02-09T08:00:19.596Z,3.30
2019-02-09T08:03:00.245Z,6.00
2019-02-09T08:05:40.093Z,4.03
2019-02-09T08:08:20.381Z,3.53
2019-02-09T08:11:00.101Z,5.37
2019-02-09T08:13:40.154Z,8.03
2019-02-09T08:16:20.344Z,5.17
2019-02-09T08:19:00.187Z,7.37
2019-02-09T08:21:40.292Z,5.70
2019-02-09T08:24:20.684Z,7.70
2019-02-09T08:27:00.427Z,7.80
2019-02-09T08:29:40.730Z,10.03
2019-02-09T08:32:20.587Z,5.30
2019-02-09T08:35:00.652Z,6.17
2019-02-09T08:37:40.833Z,5.93
2019-02-09T08:40:20.874Z,4.10
2019-02-09T08:43:01.287Z,6.33
2019-02-09T08:45:41.238Z,3.50
2019-02-09T08:48:21.672Z,7.07
2019-02-09T08:51:01.562Z,6.73
2019-02-09T08:53:41.780Z,3.70
2019-02-09T08:56:21.993Z,3.83
2019-02-09T08:59:02.016Z,5.00
2019-02-09T09:01:41.802Z,4.37
2019-02-09T09:04:21.982Z,15.87
2019-02-09T09:07:02.122Z,4.00
2019-02-09T09:09:42.077Z,3.30
2019-02-09T09:12:22.292Z,2.60
2019-02-09T09:15:02.335Z,4.97
2019-02-09T09:17:42.616Z,7.00
2019-02-09T09:20:23.206Z,3.17
2019-02-09T09:23:03.503Z,6.27
2019-02-09T09:25:43.363Z,6.40
2019-02-09T09:28:23.650Z,2.60
2019-02-09T09:31:03.878Z,3.50
2019-02-09T09:33:44.136Z,5.83
2019-02-09T09:36:24.007Z,7.57
2019-02-09T09:39:04.361Z,4.93
2019-02-09T09:41:45.922Z,3.80
2019-02-09T09:44:26.196Z,3.33
2019-02-09T09:47:06.370Z,7.23
2019-02-09T09:49:45.953Z,7.03
2019-02-09T09:52:26.015Z,6.10
2019-02-09T09:55:06.216Z,5.43
2019-02-09T09:57:46.453Z,5.00
2019-02-09T10:00:26.316Z,5.23
2019-02-09T10:03:06.813Z,6.13
2019-02-09T10:05:46.644Z,15.30
2019-02-09T10:08:26.906Z,9.87
2019-02-09T10:11:06.610Z,10.57
2019-02-09T10:13:46.990Z,4.90
2019-02-09T10:16:30.960Z,8.40
2019-02-09T10:19:11.308Z,7.63
2019-02-09T10:21:51.084Z,6.67
2019-02-09T10:24:31.246Z,14.33
2019-02-09T10:27:11.325Z,8.93
2019-02-09T10:29:51.399Z,3.53
2019-02-09T10:32:31.620Z,11.20
2019-02-09T10:35:12.212Z,2.80
2019-02-09T10:37:52.033Z,8.23
2019-02-09T10:40:32.490Z,5.93
2019-02-09T10:43:13.034Z,5.30
2019-02-09T10:45:52.716Z,7.63
2019-02-09T10:48:32.776Z,6.53
2019-02-09T10:51:12.649Z,7.97
2019-02-09T10:53:52.849Z,9.73
2019-02-09T10:56:33.123Z,8.67
2019-02-09T10:59:12.865Z,6.80
2019-02-09T11:01:53.092Z,11.63
2019-02-09T11:04:33.352Z,13.90
2019-02-09T11:07:13.384Z,5.87
2019-02-09T11:09:53.358Z,14.03
2019-02-09T11:12:33.580Z,6.37
2019-02-09T11:15:13.476Z,4.90
2019-02-09T11:17:53.269Z,5.37
2019-02-09T11:20:33.308Z,6.97
2019-02-09T11:23:13.332Z,8.00
2019-02-09T11:25:53.220Z,9.67
2019-02-09T11:28:33.212Z,8.80
2019-02-09T11:31:13.571Z,3.07
2019-02-09T11:33:53.895Z,5.07
2019-02-09T11:36:34.002Z,8.40
2019-02-09T11:39:13.993Z,8.37
2019-02-09T11:41:53.817Z,8.63
2019-02-09T11:44:40.860Z,11.13
2019-02-09T11:47:16.540Z,12.80
2019-02-09T11:49:57.372Z,10.23
2019-02-09T11:52:37.380Z,9.03
2019-02-09T11:55:17.656Z,9.97
2019-02-09T11:57:58.080Z,10.50
2019-02-09T12:00:37.687Z,6.00
2019-02-09T12:03:18.289Z,10.70
2019-02-09T12:05:58.730Z,8.50
2019-02-09T12:08:38.408Z,5.07
2019-02-09T12:11:19.028Z,6.23
2019-02-09T12:13:58.878Z,10.90
2019-02-09T12:16:39.262Z,6.77
2019-02-09T12:19:19.118Z,5.97
2019-02-09T12:21:59.920Z,9.83
2019-02-09T12:24:40.048Z,8.00
2019-02-09T12:27:20.134Z,10.27
2019-02-09T12:30:00.010Z,6.23
2019-02-09T12:32:40.031Z,4.03
2019-02-09T12:35:20.321Z,8.27
2019-02-09T12:38:00.853Z,3.87
2019-02-09T12:40:40.511Z,8.87
2019-02-09T12:43:20.524Z,10.67
2019-02-09T12:46:00.466Z,5.07
2019-02-09T12:48:40.613Z,3.77
2019-02-09T12:51:20.727Z,2.73
2019-02-09T12:54:00.742Z,5.20
2019-02-09T12:56:40.993Z,2.50
2019-02-09T12:59:21.014Z,3.80
2019-02-09T13:02:01.364Z,5.10
2019-02-09T13:04:41.400Z,4.77
2019-02-09T13:07:21.656Z,1.70
2019-02-09T13:10:02.029Z,3.27
2019-02-09T13:12:41.766Z,4.27
2019-02-09T13:15:21.813Z,1.50
2019-02-09T13:18:02.142Z,1.83
2019-02-09T13:20:42.065Z,3.37
2019-02-09T13:23:22.559Z,1.47
2019-02-09T13:26:02.448Z,4.37
2019-02-09T13:28:42.355Z,2.70
2019-02-09T13:31:22.555Z,6.40
2019-02-09T13:34:02.415Z,3.10
2019-02-09T13:36:42.642Z,5.70
2019-02-09T13:39:22.768Z,1.63
2019-02-09T13:41:50.286Z,1.20
2019-02-09T13:44:37.451Z,3.13
2019-02-09T13:47:17.433Z,6.40
2019-02-09T13:49:57.752Z,2.30
2019-02-09T13:52:37.426Z,6.33
2019-02-09T13:55:17.391Z,4.20
2019-02-09T13:57:57.803Z,4.77
2019-02-09T14:00:37.762Z,4.27
2019-02-09T14:03:17.777Z,6.40
2019-02-09T14:05:57.867Z,4.73
2019-02-09T14:08:37.958Z,3.73
2019-02-09T14:11:18.026Z,9.43
2019-02-09T14:13:57.694Z,6.03
2019-02-09T14:16:38.868Z,7.53
2019-02-09T14:19:19.270Z,4.37
2019-02-09T14:21:59.167Z,6.00
2019-02-09T14:24:40.023Z,5.43
2019-02-09T14:27:22.188Z,4.73
2019-02-09T14:30:02.232Z,6.50
2019-02-09T14:32:42.676Z,4.97
2019-02-09T14:35:22.702Z,12.63
2019-02-09T14:38:02.459Z,7.13
2019-02-09T14:40:42.834Z,8.90
2019-02-09T14:43:22.961Z,9.80
2019-02-09T14:46:02.885Z,6.10
2019-02-09T14:48:42.824Z,3.93
2019-02-09T14:51:23.211Z,8.57
2019-02-09T14:54:03.133Z,6.23
2019-02-09T14:56:42.918Z,10.23
2019-02-09T14:59:23.127Z,5.27
2019-02-09T15:02:03.182Z,8.13
2019-02-09T15:04:43.162Z,8.37
2019-02-09T15:07:23.637Z,8.67
2019-02-09T15:10:03.590Z,12.90
2019-02-09T15:12:44.550Z,7.30
2019-02-09T15:15:25.250Z,6.73
2019-02-09T15:18:05.187Z,7.60
2019-02-09T15:20:44.996Z,6.00
2019-02-09T15:23:25.128Z,4.53
2019-02-09T15:26:05.087Z,4.27
2019-02-09T15:28:45.143Z,4.03
2019-02-09T15:31:25.406Z,5.53
2019-02-09T15:34:10.242Z,7.77
2019-02-09T15:36:47.785Z,8.90
2019-02-09T15:39:27.830Z,5.33
2019-02-09T15:42:07.914Z,4.10
2019-02-09T15:44:48.092Z,5.60
2019-02-09T15:47:28.131Z,4.77
2019-02-09T15:50:08.219Z,8.97
2019-02-09T15:52:48.349Z,4.67
2019-02-09T15:55:28.665Z,7.63
2019-02-09T15:58:08.697Z,5.03
2019-02-09T16:00:48.929Z,6.43
2019-02-09T16:03:28.651Z,3.97
2019-02-09T16:06:08.811Z,7.33
2019-02-09T16:08:48.993Z,8.53
2019-02-09T16:11:29.358Z,7.80
2019-02-09T16:14:09.098Z,4.07
2019-02-09T16:16:49.501Z,11.33
2019-02-09T16:19:29.688Z,8.63
2019-02-09T16:22:09.885Z,8.67
2019-02-09T16:24:49.550Z,8.10
2019-02-09T16:27:29.829Z,17.43
2019-02-09T16:30:10.291Z,9.87
2019-02-09T16:32:50.235Z,4.63
2019-02-09T16:35:30.016Z,18.73
2019-02-09T16:38:10.232Z,6.63
2019-02-09T16:40:50.705Z,5.10
2019-02-09T16:43:30.498Z,12.53
2019-02-09T16:46:10.507Z,5.00
2019-02-09T16:48:50.623Z,6.70
2019-02-09T16:51:30.989Z,6.90
2019-02-09T16:54:11.304Z,6.63
2019-02-09T16:56:51.290Z,14.53
2019-02-09T16:59:31.210Z,12.27
2019-02-09T17:01:58.574Z,5.43
2019-02-09T17:04:45.394Z,4.83
2019-02-09T17:07:25.345Z,10.80
2019-02-09T17:09:52.673Z,15.23
2019-02-09T17:12:39.688Z,6.20
2019-02-09T17:15:20.258Z,7.90
2019-02-09T17:18:00.241Z,5.47
2019-02-09T17:20:40.463Z,8.23
2019-02-09T17:23:20.193Z,14.83
2019-02-09T17:26:00.038Z,8.00
2019-02-09T17:28:40.100Z,6.10
2019-02-09T17:31:20.156Z,10.90
2019-02-09T17:34:00.132Z,7.53
2019-02-09T17:36:40.228Z,11.53
2019-02-09T17:39:20.397Z,6.67
2019-02-09T17:42:00.502Z,5.43
2019-02-09T17:44:40.764Z,5.50
2019-02-09T17:47:20.782Z,16.03
2019-02-09T17:50:00.637Z,7.13
2019-02-09T17:52:40.577Z,8.20
2019-02-09T17:55:20.832Z,11.77
2019-02-09T17:58:00.828Z,10.97
2019-02-09T18:03:48.596Z,12.20
2019-02-09T18:06:29.260Z,9.90
2019-02-09T18:09:09.716Z,9.00
2019-02-09T18:11:49.716Z,11.67
2019-02-09T18:14:29.399Z,11.53
2019-02-09T18:17:09.999Z,16.47
2019-02-09T18:19:49.766Z,8.67
2019-02-09T18:22:29.871Z,8.07
2019-02-09T18:25:09.389Z,9.00
2019-02-09T18:27:49.579Z,13.83
2019-02-09T18:30:29.776Z,6.10
2019-02-09T18:33:09.921Z,12.47
2019-02-09T18:35:49.896Z,11.03
2019-02-09T18:38:29.760Z,11.40
2019-02-09T18:41:10.041Z,12.17
2019-02-09T18:43:50.184Z,10.83
2019-02-09T18:46:30.853Z,11.37
2019-02-09T18:49:10.911Z,11.57
2019-02-09T18:51:51.382Z,10.07
2019-02-09T18:54:31.248Z,13.80
2019-02-09T18:57:11.383Z,8.30
2019-02-09T18:59:51.590Z,15.20
2019-02-09T19:02:38.341Z,11.73
2019-02-09T19:05:14.007Z,12.97
2019-02-09T19:07:53.768Z,10.90
2019-02-09T19:10:34.057Z,11.37
2019-02-09T19:13:13.855Z,6.90
2019-02-09T19:15:54.364Z,14.87
2019-02-09T19:18:34.371Z,11.83
2019-02-09T19:21:14.340Z,14.97
2019-02-09T19:23:54.291Z,19.73
2019-02-09T19:26:34.611Z,11.60
2019-02-09T19:29:14.568Z,22.67
2019-02-09T19:31:54.560Z,22.67
2019-02-09T19:34:34.594Z,15.60
2019-02-09T19:37:15.013Z,12.33
2019-02-09T19:39:55.177Z,8.73
2019-02-09T19:42:34.981Z,10.97
2019-02-09T19:45:15.334Z,10.57
2019-02-09T19:47:55.130Z,12.17
2019-02-09T19:50:35.024Z,11.57
2019-02-09T19:53:14.921Z,12.30
2019-02-09T19:55:55.136Z,10.30
2019-02-09T19:58:34.879Z,6.67
2019-02-09T20:01:14.854Z,10.37
2019-02-09T20:03:55.061Z,13.27
2019-02-09T20:06:35.105Z,9.57
2019-02-09T20:09:15.071Z,6.70
2019-02-09T20:11:55.100Z,8.27
2019-02-09T20:14:34.942Z,11.93
2019-02-09T20:17:15.284Z,5.50
2019-02-09T20:19:55.399Z,7.17
2019-02-09T20:22:35.722Z,14.80
2019-02-09T20:25:15.403Z,9.93
2019-02-09T20:27:55.717Z,8.53
2019-02-09T20:30:36.216Z,8.33
2019-02-09T20:33:16.097Z,11.57
2019-02-09T20:35:56.394Z,6.73
2019-02-09T20:38:36.508Z,6.80
2019-02-09T20:41:16.597Z,14.33
2019-02-09T20:43:56.726Z,6.13
2019-02-09T20:46:36.650Z,7.30
2019-02-09T20:49:16.711Z,9.03
2019-02-09T20:51:57.139Z,7.97
2019-02-09T20:54:37.240Z,12.87
2019-02-09T20:57:17.280Z,7.93
2019-02-09T20:59:57.198Z,14.03
2019-02-09T21:02:37.036Z,11.03
2019-02-09T21:05:18.548Z,7.33
2019-02-09T21:07:58.493Z,9.73
2019-02-09T21:10:38.300Z,10.50
2019-02-09T21:13:18.995Z,5.20
2019-02-09T21:15:59.550Z,11.03
2019-02-09T21:18:39.762Z,9.60
2019-02-09T21:21:19.668Z,14.77
2019-02-09T21:23:59.496Z,11.50
2019-02-09T21:26:40.151Z,6.30
2019-02-09T21:29:19.980Z,8.13
2019-02-09T21:32:00.070Z,10.60
2019-02-09T21:34:40.373Z,11.33
2019-02-09T21:37:20.108Z,8.50
2019-02-09T21:40:00.281Z,15.33
2019-02-09T21:42:40.248Z,7.20
2019-02-09T21:45:20.144Z,10.23
2019-02-09T21:48:00.242Z,11.67
2019-02-09T21:50:40.448Z,4.20
2019-02-09T21:53:26.363Z,11.67
2019-02-09T21:56:08.513Z,15.67
2019-02-09T21:58:49.927Z,11.20
2019-02-09T22:01:30.991Z,11.40
2019-02-09T22:04:12.803Z,7.07
2019-02-09T22:06:54.225Z,9.97
2019-02-09T22:09:35.905Z,12.03
2019-02-09T22:12:16.268Z,10.90
2019-02-09T22:14:56.200Z,7.30
2019-02-09T22:17:36.535Z,24.13
2019-02-09T22:20:16.232Z,10.17
2019-02-09T22:22:56.144Z,6.50
2019-02-09T22:25:36.353Z,7.00
2019-02-09T22:28:16.180Z,12.33
2019-02-09T22:30:56.322Z,7.27
2019-02-09T22:33:36.370Z,8.07
2019-02-09T22:36:16.480Z,8.63
2019-02-09T22:38:56.681Z,7.40
2019-02-09T22:41:36.792Z,5.10
2019-02-09T22:44:16.859Z,6.70
2019-02-09T22:46:57.135Z,5.90
2019-02-09T22:49:37.398Z,7.57
2019-02-09T22:52:17.567Z,7.47
2019-02-09T22:54:57.706Z,5.13
2019-02-09T22:57:37.926Z,6.73
2019-02-09T23:00:19.553Z,9.50
2019-02-09T23:02:48.853Z,7.60
2019-02-09T23:05:28.526Z,3.37
2019-02-09T23:08:08.757Z,5.57
2019-02-09T23:10:48.506Z,5.77
2019-02-09T23:13:28.682Z,8.13
2019-02-09T23:16:08.856Z,5.17
2019-02-09T23:18:49.085Z,6.93
2019-02-09T23:21:29.110Z,2.60
2019-02-09T23:24:08.811Z,4.10
2019-02-09T23:26:48.700Z,9.83
2019-02-09T23:29:28.830Z,10.90
2019-02-09T23:32:08.876Z,2.60
2019-02-09T23:34:49.064Z,8.47
2019-02-09T23:37:29.073Z,6.47
2019-02-09T23:40:09.012Z,3.63
2019-02-09T23:42:49.243Z,5.83
2019-02-09T23:45:29.389Z,3.10
2019-02-09T23:48:09.870Z,5.33
2019-02-09T23:50:50.466Z,3.90
2019-02-09T23:53:30.479Z,2.40
2019-02-09T23:56:10.560Z,4.20
2019-02-09T23:58:50.735Z,4.10
